createdAt,value
2023-05-10T00:01:05.732Z,44.76
2023-05-10T00:03:33.256Z,44.46
2023-05-10T00:06:00.864Z,44.17
2023-05-10T00:08:28.122Z,44.12
2023-05-10T00:10:55.637Z,44.32
2023-05-10T00:13:24.686Z,44.22
2023-05-10T00:15:52.132Z,44.49
2023-05-10T00:18:19.820Z,44.69
2023-05-10T00:20:47.221Z,44.86
2023-05-10T00:23:14.703Z,44.77
2023-05-10T00:25:42.089Z,45.27
2023-05-10T00:28:09.477Z,44.75
2023-05-10T00:30:40.152Z,44.92
2023-05-10T00:33:08.014Z,45.29
2023-05-10T00:35:35.385Z,45.40
2023-05-10T00:38:02.800Z,46.02
2023-05-10T00:40:31.673Z,46.18
2023-05-10T00:43:04.186Z,46.56
2023-05-10T00:45:32.229Z,46.24
2023-05-10T00:48:03.489Z,46.53
2023-05-10T00:50:31.975Z,46.63
2023-05-10T00:53:00.201Z,46.48
2023-05-10T00:55:28.045Z,46.65
2023-05-10T00:57:55.484Z,46.99
2023-05-10T01:00:23.093Z,46.87
2023-05-10T01:02:51.477Z,46.89
2023-05-10T01:05:20.671Z,46.57
2023-05-10T01:07:48.218Z,46.72
2023-05-10T01:10:16.006Z,46.95
2023-05-10T01:12:47.497Z,46.95
2023-05-10T01:15:17.736Z,46.64
2023-05-10T01:17:48.386Z,46.39
2023-05-10T01:20:16.508Z,46.44
2023-05-10T01:23:12.007Z,46.33
2023-05-10T01:25:58.580Z,46.23
2023-05-10T01:28:49.562Z,46.13
2023-05-10T01:31:30.288Z,46.60
2023-05-10T01:34:05.471Z,46.69
2023-05-10T01:36:41.226Z,47.09
2023-05-10T01:39:17.209Z,46.83
2023-05-10T01:41:50.778Z,47.15
2023-05-10T01:44:24.196Z,47.36
2023-05-10T01:46:58.555Z,47.55
2023-05-10T01:49:32.030Z,47.82
2023-05-10T01:52:05.088Z,48.34
2023-05-10T01:54:35.084Z,47.99
2023-05-10T01:57:06.665Z,47.84
2023-05-10T01:59:40.269Z,47.83
2023-05-10T02:02:13.138Z,47.92
2023-05-10T02:04:43.262Z,48.46
2023-05-10T02:07:12.000Z,48.71
2023-05-10T02:09:39.821Z,48.58
2023-05-10T02:12:09.540Z,48.50
2023-05-10T02:14:38.947Z,48.15
2023-05-10T02:17:08.915Z,48.07
2023-05-10T02:19:39.636Z,47.56
2023-05-10T02:22:10.184Z,47.25
2023-05-10T02:24:38.850Z,47.38
2023-05-10T02:27:07.405Z,47.22
2023-05-10T02:29:35.383Z,47.09
2023-05-10T02:32:03.688Z,47.58
2023-05-10T02:34:32.940Z,47.63
2023-05-10T02:37:02.999Z,47.54
2023-05-10T02:39:33.313Z,47.23
2023-05-10T02:42:03.371Z,47.33
2023-05-10T02:44:32.324Z,47.28
2023-05-10T02:47:00.041Z,47.16
2023-05-10T02:49:27.581Z,47.41
2023-05-10T02:52:03.564Z,47.03
2023-05-10T02:54:38.124Z,46.67
2023-05-10T02:57:07.045Z,46.87
2023-05-10T02:59:34.560Z,46.91
2023-05-10T03:02:03.151Z,47.05
2023-05-10T03:04:30.869Z,46.81
2023-05-10T03:06:59.352Z,47.41
2023-05-10T03:09:27.641Z,47.48
2023-05-10T03:12:05.113Z,47.47
2023-05-10T03:14:46.758Z,47.85
2023-05-10T03:17:23.624Z,47.78
2023-05-10T03:19:55.508Z,47.06
2023-05-10T03:22:27.668Z,46.77
2023-05-10T03:24:58.809Z,46.83
2023-05-10T03:27:32.382Z,46.32
2023-05-10T03:30:03.565Z,46.75
2023-05-10T03:32:35.873Z,46.94
2023-05-10T03:35:08.553Z,46.50
2023-05-10T03:37:36.779Z,46.81
2023-05-10T03:40:05.360Z,46.86
2023-05-10T03:42:36.818Z,46.74
2023-05-10T03:45:04.970Z,46.54
2023-05-10T03:47:33.992Z,46.58
2023-05-10T03:50:01.688Z,46.53
2023-05-10T03:52:33.220Z,46.29
2023-05-10T03:55:00.776Z,46.08
2023-05-10T03:57:28.372Z,45.86
2023-05-10T03:59:57.175Z,45.79
2023-05-10T04:02:24.789Z,45.72
2023-05-10T04:04:52.695Z,45.45
2023-05-10T04:07:20.418Z,45.47
2023-05-10T04:09:48.527Z,46.27
2023-05-10T04:12:15.961Z,45.98
2023-05-10T04:14:43.673Z,45.54
2023-05-10T04:17:12.603Z,45.64
2023-05-10T04:19:39.974Z,45.58
2023-05-10T04:22:07.360Z,45.75
2023-05-10T04:24:34.804Z,45.99
2023-05-10T04:27:02.340Z,46.10
2023-05-10T04:29:29.993Z,46.15
2023-05-10T04:31:57.795Z,45.84
2023-05-10T04:34:26.739Z,45.71
2023-05-10T04:36:56.301Z,45.31
2023-05-10T04:39:23.587Z,45.22
2023-05-10T04:41:50.914Z,45.52
2023-05-10T04:44:18.327Z,44.85
2023-05-10T04:46:45.688Z,44.89
2023-05-10T04:49:13.287Z,44.86
2023-05-10T04:51:42.083Z,44.83
2023-05-10T04:54:12.143Z,44.80
2023-05-10T04:56:39.650Z,44.36
2023-05-10T04:59:07.163Z,44.58
2023-05-10T05:01:34.849Z,44.08
2023-05-10T05:04:02.579Z,43.91
2023-05-10T05:06:29.996Z,44.35
2023-05-10T05:08:58.782Z,43.91
2023-05-10T05:11:27.010Z,43.58
2023-05-10T05:13:54.335Z,43.15
2023-05-10T05:16:21.769Z,42.88
2023-05-10T05:18:49.239Z,43.05
2023-05-10T05:21:17.504Z,43.09
2023-05-10T05:23:45.532Z,42.88
2023-05-10T05:26:14.454Z,42.16
2023-05-10T05:28:42.109Z,42.04
2023-05-10T05:31:10.298Z,42.40
2023-05-10T05:33:38.138Z,42.05
2023-05-10T05:36:06.761Z,41.79
2023-05-10T05:38:34.483Z,41.53
2023-05-10T05:41:01.831Z,41.34
2023-05-10T05:43:30.682Z,40.94
2023-05-10T05:45:59.165Z,40.81
2023-05-10T05:48:27.392Z,40.93
2023-05-10T05:50:57.139Z,39.90
2023-05-10T05:53:24.660Z,39.98
2023-05-10T05:55:54.203Z,38.74
2023-05-10T05:58:22.041Z,39.40
2023-05-10T06:00:51.428Z,39.12
2023-05-10T06:03:19.140Z,39.09
2023-05-10T06:05:46.842Z,38.57
2023-05-10T06:08:14.147Z,37.98
2023-05-10T06:10:41.400Z,37.83
2023-05-10T06:13:08.834Z,37.91
2023-05-10T06:15:36.247Z,37.34
2023-05-10T06:18:05.282Z,37.16
2023-05-10T06:20:33.009Z,36.96
2023-05-10T06:23:00.710Z,36.79
2023-05-10T06:25:27.911Z,36.34
2023-05-10T06:27:58.515Z,35.98
2023-05-10T06:30:29.684Z,36.01
2023-05-10T06:32:58.185Z,36.20
2023-05-10T06:35:27.422Z,36.28
2023-05-10T06:37:55.161Z,36.44
2023-05-10T06:40:22.543Z,35.26
2023-05-10T06:42:50.369Z,35.37
2023-05-10T06:45:18.984Z,35.16
2023-05-10T06:47:46.952Z,35.27
2023-05-10T06:50:14.582Z,34.55
2023-05-10T06:52:44.127Z,34.43
2023-05-10T06:55:12.206Z,34.03
2023-05-10T06:57:39.541Z,33.96
2023-05-10T07:00:08.341Z,34.10
2023-05-10T07:02:35.582Z,34.29
2023-05-10T07:05:03.655Z,34.29
2023-05-10T07:07:32.855Z,34.45
2023-05-10T07:10:01.945Z,34.25
2023-05-10T07:12:32.162Z,33.65
2023-05-10T07:14:59.628Z,33.37
2023-05-10T07:17:27.254Z,33.01
2023-05-10T07:19:54.645Z,32.82
2023-05-10T07:22:22.065Z,32.80
2023-05-10T07:24:49.355Z,31.63
2023-05-10T07:27:18.060Z,32.10
2023-05-10T07:29:45.477Z,31.94
2023-05-10T07:32:12.867Z,31.71
2023-05-10T07:34:40.408Z,31.21
2023-05-10T07:37:08.527Z,30.72
2023-05-10T07:39:35.910Z,31.09
2023-05-10T07:42:04.118Z,31.10
2023-05-10T07:44:32.881Z,31.18
2023-05-10T07:47:00.625Z,30.58
2023-05-10T07:49:28.177Z,30.40
2023-05-10T07:51:55.491Z,30.10
2023-05-10T07:54:23.046Z,30.34
2023-05-10T07:56:50.644Z,30.37
2023-05-10T07:59:18.483Z,29.92
2023-05-10T08:01:47.494Z,29.87
2023-05-10T08:04:14.903Z,29.41
2023-05-10T08:06:42.316Z,29.75
2023-05-10T08:09:10.183Z,29.36
2023-05-10T08:11:37.945Z,29.66
2023-05-10T08:14:05.476Z,29.55
2023-05-10T08:16:33.614Z,29.34
2023-05-10T08:19:02.638Z,29.13
2023-05-10T08:21:30.492Z,28.55
2023-05-10T08:23:58.858Z,27.95
2023-05-10T08:26:27.060Z,28.29
2023-05-10T08:28:54.698Z,27.96
2023-05-10T08:31:22.520Z,27.69
2023-05-10T08:33:49.909Z,27.53
2023-05-10T08:36:22.667Z,27.25
2023-05-10T08:38:52.173Z,26.98
2023-05-10T08:41:22.047Z,27.15
2023-05-10T08:43:51.455Z,26.63
2023-05-10T08:46:20.649Z,26.53
2023-05-10T08:48:49.482Z,26.63
2023-05-10T08:51:22.350Z,26.52
2023-05-10T08:53:50.087Z,26.66
2023-05-10T08:56:18.905Z,26.40
2023-05-10T08:58:46.411Z,26.28
2023-05-10T09:01:15.010Z,26.01
2023-05-10T09:03:43.064Z,25.96
2023-05-10T09:06:12.638Z,26.09
2023-05-10T09:08:42.763Z,26.42
2023-05-10T09:11:11.333Z,26.44
2023-05-10T09:13:38.999Z,26.85
2023-05-10T09:16:17.492Z,26.63
2023-05-10T09:18:51.018Z,26.95
2023-05-10T09:21:20.455Z,26.87
2023-05-10T09:23:51.338Z,26.49
2023-05-10T09:26:23.983Z,26.09
2023-05-10T09:28:56.609Z,26.61
2023-05-10T09:31:26.292Z,26.68
2023-05-10T09:33:54.349Z,26.48
2023-05-10T09:36:21.812Z,26.65
2023-05-10T09:38:52.914Z,26.33
2023-05-10T09:41:22.608Z,25.78
2023-05-10T09:43:51.004Z,25.39
2023-05-10T09:46:18.370Z,25.98
2023-05-10T09:48:48.001Z,26.04
2023-05-10T09:51:21.462Z,26.14
2023-05-10T09:54:09.699Z,26.06
2023-05-10T09:56:39.961Z,26.34
2023-05-10T09:59:09.208Z,26.33
2023-05-10T10:01:37.389Z,26.76
2023-05-10T10:04:06.371Z,26.49
2023-05-10T10:06:37.974Z,26.64
2023-05-10T10:09:07.343Z,26.87
2023-05-10T10:11:36.319Z,26.29
2023-05-10T10:14:04.051Z,25.49
2023-05-10T10:16:32.630Z,25.79
2023-05-10T10:19:01.880Z,26.06
2023-05-10T10:21:29.873Z,25.82
2023-05-10T10:23:57.391Z,26.06
2023-05-10T10:26:26.540Z,25.33
2023-05-10T10:29:10.005Z,25.97
2023-05-10T10:31:45.693Z,26.02
2023-05-10T10:34:28.034Z,26.11
2023-05-10T10:36:56.757Z,26.15
2023-05-10T10:39:28.138Z,26.31
2023-05-10T10:41:58.580Z,25.96
2023-05-10T10:44:41.504Z,25.70
2023-05-10T10:47:32.224Z,25.74
2023-05-10T10:50:07.566Z,25.77
2023-05-10T10:52:36.324Z,25.90
2023-05-10T10:55:07.345Z,26.11
2023-05-10T10:57:45.958Z,25.87
2023-05-10T11:00:25.532Z,25.72
2023-05-10T11:02:54.313Z,25.98
2023-05-10T11:05:27.080Z,25.93
2023-05-10T11:07:55.332Z,26.09
2023-05-10T11:10:22.696Z,26.09
2023-05-10T11:13:01.955Z,26.28
2023-05-10T11:15:33.017Z,26.01
2023-05-10T11:18:01.219Z,25.35
2023-05-10T11:20:34.420Z,26.14
2023-05-10T11:23:17.064Z,26.34
2023-05-10T11:25:45.656Z,26.61
2023-05-10T11:28:14.725Z,26.68
2023-05-10T11:30:44.776Z,26.51
2023-05-10T11:33:17.228Z,26.04
2023-05-10T11:35:45.035Z,26.27
2023-05-10T11:38:13.324Z,26.35
2023-05-10T11:40:41.835Z,26.27
2023-05-10T11:43:11.580Z,26.22
2023-05-10T11:45:42.417Z,26.32
2023-05-10T11:48:09.969Z,26.30
2023-05-10T11:50:37.619Z,26.42
2023-05-10T11:53:05.024Z,26.43
2023-05-10T11:55:35.281Z,26.51
2023-05-10T11:58:03.740Z,26.76
2023-05-10T12:00:32.678Z,26.97
2023-05-10T12:03:02.395Z,27.00
2023-05-10T12:05:34.007Z,27.00
2023-05-10T12:08:14.780Z,26.71
2023-05-10T12:10:42.738Z,26.72
2023-05-10T12:13:16.460Z,26.72
2023-05-10T12:15:44.629Z,26.65
2023-05-10T12:18:14.781Z,26.63
2023-05-10T12:20:42.628Z,26.89
2023-05-10T12:23:11.090Z,27.32
2023-05-10T12:25:39.450Z,27.38
2023-05-10T12:28:08.864Z,27.48
2023-05-10T12:30:38.058Z,27.21
2023-05-10T12:33:09.818Z,27.15
2023-05-10T12:35:46.708Z,27.30
2023-05-10T12:38:30.615Z,27.33
2023-05-10T12:40:59.201Z,27.39
2023-05-10T12:43:26.789Z,27.47
2023-05-10T12:45:54.208Z,27.62
2023-05-10T12:48:21.561Z,27.54
2023-05-10T12:50:50.488Z,27.51
2023-05-10T12:53:18.459Z,27.55
2023-05-10T12:55:45.949Z,27.51
2023-05-10T12:58:17.927Z,27.23
2023-05-10T13:00:48.541Z,27.80
2023-05-10T13:03:16.909Z,27.73
2023-05-10T13:05:44.559Z,27.82
2023-05-10T13:08:16.472Z,27.84
2023-05-10T13:10:49.975Z,28.22
2023-05-10T13:13:17.301Z,28.11
2023-05-10T13:15:44.850Z,28.26
2023-05-10T13:18:12.375Z,27.97
2023-05-10T13:20:39.849Z,28.05
2023-05-10T13:23:07.382Z,28.32
2023-05-10T13:25:36.586Z,28.13
2023-05-10T13:28:04.045Z,28.23
2023-05-10T13:30:33.386Z,28.32
2023-05-10T13:33:01.123Z,28.25
2023-05-10T13:35:30.650Z,28.09
2023-05-10T13:38:01.096Z,28.49
2023-05-10T13:40:31.587Z,28.68
2023-05-10T13:43:00.617Z,28.81
2023-05-10T13:45:28.451Z,28.70
2023-05-10T13:48:01.028Z,28.97
2023-05-10T13:50:28.509Z,29.00
2023-05-10T13:52:56.595Z,29.10
2023-05-10T13:55:24.350Z,28.94
2023-05-10T13:57:51.862Z,29.19
2023-05-10T14:00:21.240Z,29.26
2023-05-10T14:02:48.750Z,29.14
2023-05-10T14:05:17.066Z,29.17
2023-05-10T14:07:45.507Z,29.43
2023-05-10T14:10:12.930Z,29.30
2023-05-10T14:12:40.383Z,29.22
2023-05-10T14:15:11.140Z,29.06
2023-05-10T14:17:40.202Z,29.33
2023-05-10T14:20:08.813Z,29.25
2023-05-10T14:22:36.610Z,29.23
2023-05-10T14:25:07.813Z,29.39
2023-05-10T14:27:35.458Z,29.60
2023-05-10T14:30:02.878Z,29.82
2023-05-10T14:32:33.337Z,29.91
2023-05-10T14:35:02.266Z,30.07
2023-05-10T14:37:32.121Z,29.99
2023-05-10T14:40:01.091Z,30.16
2023-05-10T14:42:30.651Z,30.00
2023-05-10T14:44:58.811Z,30.02
2023-05-10T14:47:26.089Z,30.08
2023-05-10T14:49:53.722Z,30.02
2023-05-10T14:52:24.864Z,30.10
2023-05-10T14:54:52.219Z,30.22
2023-05-10T14:57:19.577Z,30.23
2023-05-10T14:59:46.992Z,30.08
2023-05-10T15:02:26.416Z,30.56
2023-05-10T15:04:55.916Z,30.46
2023-05-10T15:07:25.082Z,30.21
2023-05-10T15:09:55.518Z,30.49
2023-05-10T15:12:22.957Z,30.64
2023-05-10T15:14:58.791Z,30.36
2023-05-10T15:17:49.089Z,30.71
2023-05-10T15:21:04.770Z,30.58
2023-05-10T15:24:00.958Z,30.84
2023-05-10T15:26:27.401Z,30.88
2023-05-10T15:28:58.959Z,30.91
2023-05-10T15:32:18.498Z,31.43
2023-05-10T15:34:46.149Z,31.45
2023-05-10T15:37:13.794Z,31.46
2023-05-10T15:39:42.583Z,31.32
2023-05-10T15:42:09.995Z,31.26
2023-05-10T15:44:39.498Z,31.22
2023-05-10T15:47:07.037Z,31.36
2023-05-10T15:49:34.932Z,31.58
2023-05-10T15:52:02.473Z,31.71
2023-05-10T15:54:45.049Z,31.80
2023-05-10T15:57:12.654Z,31.89
2023-05-10T15:59:39.875Z,32.15
2023-05-10T16:02:35.402Z,32.19
2023-05-10T16:05:03.170Z,31.88
2023-05-10T16:07:32.641Z,31.79
2023-05-10T16:10:06.641Z,32.12
2023-05-10T16:12:34.438Z,31.95
2023-05-10T16:24:30.516Z,32.05
2023-05-10T16:27:02.585Z,32.22
2023-05-10T16:30:40.046Z,32.69
2023-05-10T16:36:18.863Z,32.50
2023-05-10T16:38:46.761Z,32.55
2023-05-10T16:41:14.036Z,32.63
2023-05-10T16:43:47.184Z,33.23
2023-05-10T16:46:21.186Z,33.17
2023-05-10T16:48:56.068Z,33.43
2023-05-10T16:51:23.690Z,33.58
2023-05-10T16:53:51.142Z,33.71
2023-05-10T16:56:18.844Z,33.83
2023-05-10T16:58:51.697Z,33.92
2023-05-10T17:08:48.012Z,33.76
2023-05-10T17:11:27.702Z,34.17
2023-05-10T17:13:56.616Z,34.21
2023-05-10T17:16:24.384Z,33.71
2023-05-10T17:18:51.888Z,33.54
2023-05-10T17:25:50.186Z,33.75
2023-05-10T17:32:41.444Z,33.99
2023-05-10T17:36:01.906Z,33.88
2023-05-10T17:38:29.656Z,34.07
2023-05-10T17:40:57.170Z,34.36
2023-05-10T17:43:26.173Z,34.71
2023-05-10T17:45:53.811Z,35.06
2023-05-10T17:48:23.152Z,35.46
2023-05-10T17:50:51.097Z,36.02
2023-05-10T17:53:19.513Z,36.54
2023-05-10T17:55:47.173Z,37.00
2023-05-10T17:58:14.536Z,37.28
2023-05-10T18:00:41.950Z,37.60
2023-05-10T18:03:11.822Z,37.43
2023-05-10T18:05:40.942Z,37.56
2023-05-10T18:08:08.787Z,37.57
2023-05-10T18:10:38.159Z,37.45
2023-05-10T18:13:08.946Z,37.37
2023-05-10T18:15:36.565Z,37.78
2023-05-10T18:18:04.772Z,38.19
2023-05-10T18:20:32.577Z,38.38
2023-05-10T18:23:01.523Z,39.24
2023-05-10T18:25:29.280Z,40.07
2023-05-10T18:27:56.880Z,40.29
2023-05-10T18:30:24.301Z,40.79
2023-05-10T18:32:51.742Z,41.46
2023-05-10T18:35:19.649Z,41.20
2023-05-10T18:37:47.483Z,41.22
2023-05-10T18:40:20.744Z,41.07
2023-05-10T18:42:50.185Z,40.42
2023-05-10T18:45:18.213Z,40.26
2023-05-10T18:47:56.003Z,40.84
2023-05-10T18:50:25.774Z,40.91
2023-05-10T18:56:36.993Z,41.25
2023-05-10T18:59:06.030Z,41.65
2023-05-10T19:01:36.735Z,42.08
2023-05-10T19:04:09.847Z,42.29
2023-05-10T19:06:37.391Z,41.85
2023-05-10T19:09:05.095Z,42.20
2023-05-10T19:11:34.546Z,42.81
2023-05-10T19:14:05.886Z,43.19
2023-05-10T19:24:26.072Z,43.00
2023-05-10T19:26:53.793Z,43.43
2023-05-10T19:29:23.373Z,43.66
2023-05-10T19:31:52.544Z,43.70
2023-05-10T19:34:20.504Z,43.65
2023-05-10T19:36:51.356Z,43.58
2023-05-10T19:39:18.754Z,43.29
2023-05-10T19:41:47.963Z,43.40
2023-05-10T19:44:15.295Z,43.03
2023-05-10T19:46:44.452Z,42.78
2023-05-10T19:49:11.787Z,42.32
2023-05-10T19:51:39.210Z,41.94
2023-05-10T19:54:06.675Z,41.95
2023-05-10T19:56:34.298Z,41.92
2023-05-10T19:59:03.593Z,41.30
2023-05-10T20:01:32.855Z,41.44
2023-05-10T20:04:02.124Z,41.62
2023-05-10T20:06:29.603Z,41.85
2023-05-10T20:08:56.899Z,42.08
2023-05-10T20:11:24.186Z,42.44
2023-05-10T20:13:51.408Z,42.93
2023-05-10T20:16:18.927Z,43.33
2023-05-10T20:18:46.826Z,44.10
2023-05-10T20:21:15.731Z,43.84
2023-05-10T20:23:43.944Z,44.18
2023-05-10T20:26:11.306Z,43.87
2023-05-10T20:28:38.664Z,43.54
2023-05-10T20:31:06.146Z,43.39
2023-05-10T20:33:33.616Z,43.53
2023-05-10T20:36:01.041Z,43.57
2023-05-10T20:38:29.934Z,44.21
2023-05-10T20:40:57.427Z,44.15
2023-05-10T20:43:25.023Z,44.09
2023-05-10T20:45:54.192Z,44.06
2023-05-10T20:48:21.792Z,43.77
2023-05-10T20:50:49.226Z,44.06
2023-05-10T20:53:18.608Z,43.86
2023-05-10T20:55:47.406Z,44.52
2023-05-10T20:58:14.773Z,45.38
2023-05-10T21:00:42.344Z,45.91
2023-05-10T21:03:09.800Z,46.17
2023-05-10T21:05:37.284Z,46.84
2023-05-10T21:08:04.829Z,46.83
2023-05-10T21:10:32.204Z,47.33
2023-05-10T21:13:01.244Z,46.98
2023-05-10T21:15:28.929Z,46.52
2023-05-10T21:17:56.634Z,46.77
2023-05-10T21:20:24.031Z,46.83
2023-05-10T21:22:51.446Z,47.43
2023-05-10T21:25:19.158Z,46.89
2023-05-10T21:27:48.418Z,47.20
2023-05-10T21:30:17.543Z,47.13
2023-05-10T21:32:45.119Z,47.45
2023-05-10T21:35:12.561Z,47.76
2023-05-10T21:37:40.182Z,48.37
2023-05-10T21:40:08.399Z,49.11
2023-05-10T21:42:35.793Z,49.46
2023-05-10T21:45:04.013Z,49.61
2023-05-10T21:47:34.229Z,50.27
2023-05-10T21:50:01.884Z,50.46
2023-05-10T21:52:31.669Z,50.47
2023-05-10T21:54:59.181Z,50.49
2023-05-10T21:57:26.794Z,50.36
2023-05-10T21:59:54.284Z,50.01
2023-05-10T22:02:21.818Z,50.59
2023-05-10T22:04:50.809Z,50.03
2023-05-10T22:07:18.272Z,50.21
2023-05-10T22:09:45.722Z,49.06
2023-05-10T22:12:13.255Z,49.15
2023-05-10T22:14:40.656Z,48.76
2023-05-10T22:17:08.342Z,48.76
2023-05-10T22:19:35.861Z,48.78
2023-05-10T22:22:04.815Z,49.18
2023-05-10T22:24:32.372Z,48.38
2023-05-10T22:26:59.876Z,48.37
2023-05-10T22:29:27.497Z,47.67
2023-05-10T22:31:55.050Z,48.01
2023-05-10T22:34:22.767Z,47.85
2023-05-10T22:36:50.659Z,47.77
2023-05-10T22:39:19.699Z,47.85
2023-05-10T22:41:47.009Z,47.84
2023-05-10T22:44:14.475Z,47.72
2023-05-10T22:46:41.767Z,47.64
2023-05-10T22:49:09.806Z,48.48
2023-05-10T22:51:37.503Z,49.36
2023-05-10T22:54:05.185Z,50.48
2023-05-10T22:56:34.191Z,50.48
2023-05-10T22:59:01.657Z,50.30
2023-05-10T23:01:29.722Z,51.23
2023-05-10T23:03:57.230Z,51.10
2023-05-10T23:06:24.740Z,51.15
2023-05-10T23:08:52.188Z,51.66
2023-05-10T23:11:19.725Z,51.22
2023-05-10T23:13:48.796Z,51.25
2023-05-10T23:16:16.183Z,51.85
2023-05-10T23:18:43.712Z,52.85
2023-05-10T23:21:11.297Z,51.97
2023-05-10T23:23:38.796Z,52.56
2023-05-10T23:26:06.385Z,52.05
2023-05-10T23:28:33.816Z,52.78
2023-05-10T23:31:02.642Z,52.51
2023-05-10T23:33:30.173Z,53.19
2023-05-10T23:35:57.472Z,53.16
2023-05-10T23:38:24.909Z,53.50
2023-05-10T23:40:52.367Z,53.54
2023-05-10T23:43:20.078Z,53.70
2023-05-10T23:45:53.899Z,52.69
2023-05-10T23:48:23.223Z,52.84
2023-05-10T23:50:50.875Z,52.47
2023-05-10T23:53:18.405Z,52.15
2023-05-10T23:55:45.786Z,52.70
2023-05-10T23:58:13.204Z,52.77
